Time;durP1;ratioP1;P1;durP2;ratioP2;P2;SDS_P1;SDS_P2;PMS_P1;PMS_P2;Temp;Humidity;BMP_temperature;BMP_pressure;BME280_temperature;BME280_humidity;BME280_pressure;Samples;Min_cycle;Max_cycle;Signal;HPM_P1;HPM_P2
2021/08/14 00:01:24;;;;;;;9.05;3.67;;;;;;;;;;5072448;28;20082;-73
2021/08/14 00:03:51;;;;;;;9.88;3.97;;;;;;;;;;5078601;28;20068;-70
2021/08/14 00:06:17;;;;;;;9.93;4.05;;;;;;;;;;5073668;28;20029;-71
2021/08/14 00:08:44;;;;;;;7.88;4.35;;;;;;;;;;5077263;28;20028;-72
2021/08/14 00:11:11;;;;;;;11.02;4.07;;;;;;;;;;5076364;28;20020;-70
2021/08/14 00:13:37;;;;;;;8.32;3.55;;;;;;;;;;5076231;28;20024;-71
2021/08/14 00:16:03;;;;;;;8.40;3.65;;;;;;;;;;5076214;28;20048;-70
2021/08/14 00:18:29;;;;;;;7.10;4.63;;;;;;;;;;5078095;28;20493;-72
2021/08/14 00:20:55;;;;;;;7.72;3.67;;;;;;;;;;5077458;28;20032;-72
2021/08/14 00:23:21;;;;;;;12.43;4.40;;;;;;;;;;5077537;28;20040;-72
2021/08/14 00:25:48;;;;;;;10.13;4.78;;;;;;;;;;5076321;28;20468;-70
2021/08/14 00:28:15;;;;;;;8.02;3.42;;;;;;;;;;5075095;28;20038;-72
2021/08/14 00:30:41;;;;;;;8.38;3.58;;;;;;;;;;5077311;28;20020;-70
2021/08/14 00:33:07;;;;;;;9.73;3.97;;;;;;;;;;5076318;28;20035;-70
2021/08/14 00:35:33;;;;;;;10.05;4.00;;;;;;;;;;5075800;28;20484;-74
2021/08/14 00:37:59;;;;;;;10.00;4.95;;;;;;;;;;5075975;28;20092;-71
2021/08/14 00:40:28;;;;;;;9.18;3.85;;;;;;;;;;5076463;28;20024;-69
2021/08/14 00:42:55;;;;;;;12.68;4.90;;;;;;;;;;5076993;28;20096;-71
2021/08/14 00:45:21;;;;;;;7.25;3.58;;;;;;;;;;5075689;28;20103;-71
2021/08/14 00:47:47;;;;;;;8.40;3.75;;;;;;;;;;5075528;28;20024;-72
2021/08/14 00:50:13;;;;;;;10.90;3.60;;;;;;;;;;5076057;28;20020;-73
2021/08/14 00:52:39;;;;;;;9.18;3.30;;;;;;;;;;5079210;28;20024;-73
2021/08/14 00:55:06;;;;;;;7.10;4.18;;;;;;;;;;5076451;28;20042;-70
2021/08/14 00:57:32;;;;;;;10.43;4.72;;;;;;;;;;5075580;28;20028;-71
2021/08/14 00:59:59;;;;;;;9.65;3.92;;;;;;;;;;5075455;28;20024;-73
2021/08/14 01:02:25;;;;;;;9.20;3.78;;;;;;;;;;5076280;28;20047;-70
2021/08/14 01:04:52;;;;;;;8.18;3.67;;;;;;;;;;5077097;28;20045;-70
2021/08/14 01:07:18;;;;;;;10.15;3.83;;;;;;;;;;5075312;28;20032;-70
2021/08/14 01:09:48;;;;;;;9.43;3.95;;;;;;;;;;5075134;28;20407;-71
2021/08/14 01:12:16;;;;;;;7.15;3.25;;;;;;;;;;5075789;28;20021;-70
2021/08/14 01:14:46;;;;;;;10.85;4.10;;;;;;;;;;5074858;28;20021;-70
2021/08/14 01:17:12;;;;;;;14.27;3.72;;;;;;;;;;5076197;28;20020;-72
2021/08/14 01:19:39;;;;;;;9.88;3.65;;;;;;;;;;5074504;28;20024;-70
2021/08/14 01:22:08;;;;;;;10.70;4.00;;;;;;;;;;5075065;28;20081;-72
2021/08/14 01:24:38;;;;;;;10.40;3.38;;;;;;;;;;5080179;28;20059;-70
2021/08/14 01:27:05;;;;;;;10.48;4.00;;;;;;;;;;5075416;28;20036;-72
2021/08/14 01:29:31;;;;;;;16.05;5.47;;;;;;;;;;5074944;28;20024;-71
2021/08/14 01:31:57;;;;;;;9.32;3.08;;;;;;;;;;5075385;28;20036;-72
2021/08/14 01:34:23;;;;;;;8.40;3.00;;;;;;;;;;5074271;28;20038;-71
2021/08/14 01:36:53;;;;;;;11.65;4.50;;;;;;;;;;5075200;28;20021;-73
2021/08/14 01:39:19;;;;;;;6.95;3.53;;;;;;;;;;5074680;28;20021;-72
2021/08/14 01:41:58;;;;;;;9.02;4.10;;;;;;;;;;5074965;28;20532;-74
2021/08/14 01:44:25;;;;;;;10.73;3.60;;;;;;;;;;5074669;28;20032;-69
2021/08/14 01:46:51;;;;;;;14.85;4.07;;;;;;;;;;5074936;28;20100;-70
2021/08/14 01:49:18;;;;;;;14.45;4.07;;;;;;;;;;5076737;28;20029;-70
2021/08/14 01:51:44;;;;;;;7.82;3.72;;;;;;;;;;5076003;28;20387;-72
2021/08/14 01:54:10;;;;;;;6.95;3.42;;;;;;;;;;5074274;28;20031;-73
2021/08/14 01:56:36;;;;;;;9.38;4.25;;;;;;;;;;5074685;28;20021;-71
2021/08/14 01:59:02;;;;;;;9.70;3.40;;;;;;;;;;5076902;28;20085;-72
2021/08/14 02:01:28;;;;;;;12.70;4.03;;;;;;;;;;5077668;28;20149;-72
2021/08/14 02:03:55;;;;;;;11.80;4.70;;;;;;;;;;5073872;28;20044;-72
2021/08/14 02:06:22;;;;;;;10.60;3.95;;;;;;;;;;5074043;28;20067;-71
2021/08/14 02:08:48;;;;;;;10.05;3.63;;;;;;;;;;5074872;28;20054;-71
2021/08/14 02:11:15;;;;;;;8.20;3.80;;;;;;;;;;5075733;28;20025;-70
2021/08/14 02:13:42;;;;;;;7.80;4.45;;;;;;;;;;5074248;28;20444;-72
2021/08/14 02:16:08;;;;;;;8.55;3.97;;;;;;;;;;5073660;28;20387;-71
2021/08/14 02:18:35;;;;;;;10.52;3.33;;;;;;;;;;5073741;28;20024;-70
2021/08/14 02:21:01;;;;;;;14.98;4.95;;;;;;;;;;5075333;28;20047;-71
2021/08/14 02:23:27;;;;;;;11.73;4.55;;;;;;;;;;5074969;28;20078;-73
2021/08/14 02:25:53;;;;;;;7.40;3.22;;;;;;;;;;5073889;28;20021;-70
2021/08/14 02:28:20;;;;;;;10.35;4.03;;;;;;;;;;5072180;28;20031;-70
2021/08/14 02:30:46;;;;;;;7.90;3.85;;;;;;;;;;5072730;28;20028;-71
2021/08/14 02:33:12;;;;;;;6.10;3.50;;;;;;;;;;5074303;28;20032;-70
2021/08/14 02:35:38;;;;;;;8.73;4.20;;;;;;;;;;5073403;28;20043;-71
2021/08/14 02:38:04;;;;;;;14.48;3.50;;;;;;;;;;5073363;28;20096;-70
2021/08/14 02:40:32;;;;;;;8.07;3.90;;;;;;;;;;5073285;28;20028;-71
2021/08/14 02:42:58;;;;;;;6.88;3.80;;;;;;;;;;5073617;28;20017;-70
2021/08/14 02:45:24;;;;;;;7.50;3.13;;;;;;;;;;5074992;28;20024;-72
2021/08/14 02:47:50;;;;;;;14.93;3.88;;;;;;;;;;5073656;28;20024;-72
2021/08/14 02:50:17;;;;;;;8.63;3.63;;;;;;;;;;5073226;28;20417;-73
2021/08/14 02:52:43;;;;;;;7.88;3.58;;;;;;;;;;5073096;28;20017;-71
2021/08/14 02:55:09;;;;;;;12.40;4.45;;;;;;;;;;5073333;28;20020;-71
2021/08/14 02:57:35;;;;;;;5.05;3.45;;;;;;;;;;5071534;28;20020;-70
2021/08/14 03:00:01;;;;;;;8.10;3.55;;;;;;;;;;5075299;28;20017;-72
2021/08/14 03:02:27;;;;;;;9.52;3.97;;;;;;;;;;5072243;28;20391;-72
2021/08/14 03:04:53;;;;;;;12.77;4.53;;;;;;;;;;5073070;28;20060;-72
2021/08/14 03:07:19;;;;;;;6.22;3.53;;;;;;;;;;5074599;28;20032;-72
2021/08/14 03:09:45;;;;;;;11.52;3.88;;;;;;;;;;5073350;28;20490;-70
2021/08/14 03:12:11;;;;;;;8.80;3.55;;;;;;;;;;5072976;28;20020;-70
2021/08/14 03:14:38;;;;;;;7.10;3.20;;;;;;;;;;5072841;28;20052;-70
2021/08/14 03:17:05;;;;;;;8.45;3.72;;;;;;;;;;5073261;28;20075;-71
2021/08/14 03:19:31;;;;;;;7.45;3.78;;;;;;;;;;5073285;28;20020;-72
2021/08/14 03:21:57;;;;;;;10.80;4.30;;;;;;;;;;5072701;28;20017;-72
2021/08/14 03:24:23;;;;;;;13.25;3.80;;;;;;;;;;5072824;28;20029;-71
2021/08/14 03:26:50;;;;;;;7.70;4.57;;;;;;;;;;5073056;28;20024;-70
2021/08/14 03:29:16;;;;;;;9.07;3.78;;;;;;;;;;5074025;28;20039;-72
2021/08/14 03:31:42;;;;;;;14.45;4.55;;;;;;;;;;5074321;28;20043;-70
2021/08/14 03:34:08;;;;;;;11.00;3.97;;;;;;;;;;5072861;28;20028;-71
2021/08/14 03:36:34;;;;;;;10.70;4.47;;;;;;;;;;5072709;28;20025;-71
2021/08/14 03:39:01;;;;;;;7.65;4.07;;;;;;;;;;5073124;28;20110;-71
2021/08/14 03:41:27;;;;;;;10.82;3.47;;;;;;;;;;5073763;28;20025;-71
2021/08/14 03:43:53;;;;;;;6.43;3.30;;;;;;;;;;5076935;28;20028;-71
2021/08/14 03:46:19;;;;;;;10.00;3.60;;;;;;;;;;5075452;28;20087;-73
2021/08/14 03:48:45;;;;;;;8.98;4.28;;;;;;;;;;5076267;28;20038;-70
2021/08/14 03:51:11;;;;;;;9.45;4.20;;;;;;;;;;5076584;28;20028;-71
2021/08/14 03:53:37;;;;;;;8.07;3.28;;;;;;;;;;5076584;28;20374;-71
2021/08/14 03:56:03;;;;;;;8.45;4.75;;;;;;;;;;5076403;28;20032;-71
2021/08/14 03:58:33;;;;;;;12.63;4.22;;;;;;;;;;5076276;28;20013;-72
2021/08/14 04:01:03;;;;;;;13.07;4.68;;;;;;;;;;5076686;28;20024;-69
2021/08/14 04:03:30;;;;;;;8.63;3.55;;;;;;;;;;5077161;28;20079;-70
2021/08/14 04:05:56;;;;;;;10.60;4.80;;;;;;;;;;5076879;28;20416;-70
2021/08/14 04:08:22;;;;;;;11.95;4.35;;;;;;;;;;5076915;28;20036;-71
2021/08/14 04:10:49;;;;;;;12.57;4.07;;;;;;;;;;5082323;28;20105;-73
2021/08/14 04:13:15;;;;;;;7.97;3.92;;;;;;;;;;5081267;28;20033;-71
2021/08/14 04:15:41;;;;;;;10.98;4.20;;;;;;;;;;5080051;28;20024;-72
2021/08/14 04:18:07;;;;;;;16.02;5.50;;;;;;;;;;5079483;28;20467;-71
2021/08/14 04:20:33;;;;;;;8.15;4.20;;;;;;;;;;5079473;28;20029;-70
2021/08/14 04:22:59;;;;;;;12.82;4.68;;;;;;;;;;5077522;28;20020;-70
2021/08/14 04:25:25;;;;;;;8.30;3.65;;;;;;;;;;5075567;28;20020;-72
2021/08/14 04:27:52;;;;;;;10.75;4.30;;;;;;;;;;5076563;28;20016;-71
2021/08/14 04:30:18;;;;;;;10.73;3.70;;;;;;;;;;5076443;28;20024;-70
2021/08/14 04:32:44;;;;;;;11.90;4.30;;;;;;;;;;5076911;28;20032;-70
2021/08/14 04:35:14;;;;;;;8.52;4.00;;;;;;;;;;5074322;28;20115;-69
2021/08/14 04:37:40;;;;;;;7.47;3.70;;;;;;;;;;5075612;28;20020;-71
2021/08/14 04:40:08;;;;;;;10.68;4.68;;;;;;;;;;5076170;28;20043;-72
2021/08/14 04:42:34;;;;;;;11.38;4.97;;;;;;;;;;5076188;28;20383;-71
2021/08/14 04:45:00;;;;;;;14.43;4.10;;;;;;;;;;5076369;28;20028;-70
2021/08/14 04:47:26;;;;;;;11.60;4.80;;;;;;;;;;5075787;28;20039;-71
2021/08/14 04:49:55;;;;;;;10.95;5.13;;;;;;;;;;5076427;28;20050;-67
2021/08/14 04:52:21;;;;;;;10.23;4.07;;;;;;;;;;5076042;28;20394;-70
2021/08/14 04:54:47;;;;;;;8.55;4.32;;;;;;;;;;5074878;28;20475;-70
2021/08/14 04:57:14;;;;;;;11.63;4.22;;;;;;;;;;5075610;28;20028;-71
2021/08/14 04:59:40;;;;;;;12.82;4.07;;;;;;;;;;5075383;28;20048;-70
2021/08/14 05:02:06;;;;;;;9.48;4.68;;;;;;;;;;5075259;28;20024;-72
2021/08/14 05:04:32;;;;;;;10.35;4.40;;;;;;;;;;5075163;28;20024;-71
2021/08/14 05:07:00;;;;;;;10.40;5.05;;;;;;;;;;5075381;28;20029;-70
2021/08/14 05:09:26;;;;;;;11.70;4.45;;;;;;;;;;5075043;28;20025;-72
2021/08/14 05:11:52;;;;;;;6.68;4.45;;;;;;;;;;5074967;28;20024;-72
2021/08/14 05:14:19;;;;;;;10.27;4.38;;;;;;;;;;5075920;28;20031;-71
2021/08/14 05:16:45;;;;;;;9.40;4.35;;;;;;;;;;5074900;28;20048;-71
2021/08/14 05:19:11;;;;;;;10.75;4.38;;;;;;;;;;5075027;28;20070;-71
2021/08/14 05:21:37;;;;;;;12.23;4.75;;;;;;;;;;5074977;28;20430;-72
2021/08/14 05:24:04;;;;;;;10.73;4.85;;;;;;;;;;5074758;28;20059;-71
2021/08/14 05:26:30;;;;;;;8.80;4.80;;;;;;;;;;5074852;28;20028;-70
2021/08/14 05:28:56;;;;;;;10.95;4.65;;;;;;;;;;5074996;28;20078;-71
2021/08/14 05:31:22;;;;;;;9.63;4.63;;;;;;;;;;5074935;28;20033;-70
2021/08/14 05:33:48;;;;;;;11.68;5.40;;;;;;;;;;5076688;28;20024;-71
2021/08/14 05:36:15;;;;;;;9.00;4.18;;;;;;;;;;5074481;28;20016;-72
2021/08/14 05:38:41;;;;;;;12.00;4.90;;;;;;;;;;5074541;28;20028;-71
2021/08/14 05:41:07;;;;;;;11.80;4.15;;;;;;;;;;5074305;28;20028;-71
2021/08/14 05:43:34;;;;;;;12.73;5.32;;;;;;;;;;5074488;28;20151;-71
2021/08/14 05:46:00;;;;;;;8.63;4.78;;;;;;;;;;5074552;28;20024;-71
2021/08/14 05:48:26;;;;;;;9.05;4.40;;;;;;;;;;5074414;28;20035;-71
2021/08/14 05:50:52;;;;;;;8.35;3.92;;;;;;;;;;5074212;28;20028;-70
2021/08/14 05:53:18;;;;;;;13.95;4.78;;;;;;;;;;5072949;28;20115;-73
2021/08/14 05:55:45;;;;;;;14.13;6.18;;;;;;;;;;5074713;28;20448;-71
2021/08/14 05:58:12;;;;;;;8.90;4.85;;;;;;;;;;5074257;28;20078;-71
2021/08/14 06:00:38;;;;;;;10.38;4.10;;;;;;;;;;5076569;28;20475;-70
2021/08/14 06:03:04;;;;;;;13.57;4.53;;;;;;;;;;5077417;28;20056;-71
2021/08/14 06:05:30;;;;;;;9.18;5.15;;;;;;;;;;5077226;28;20020;-70
2021/08/14 06:07:56;;;;;;;9.55;4.45;;;;;;;;;;5076758;28;20044;-72
2021/08/14 06:10:22;;;;;;;8.52;3.90;;;;;;;;;;5074037;28;20017;-71
2021/08/14 06:12:49;;;;;;;13.00;4.55;;;;;;;;;;5076848;28;20083;-70
2021/08/14 06:15:15;;;;;;;11.40;4.75;;;;;;;;;;5073787;28;20055;-71
2021/08/14 06:17:41;;;;;;;12.77;4.32;;;;;;;;;;5073919;28;20077;-71
2021/08/14 06:20:11;;;;;;;8.52;4.55;;;;;;;;;;5073828;28;20025;-71
2021/08/14 06:22:37;;;;;;;14.73;4.43;;;;;;;;;;5072630;28;20490;-71
2021/08/14 06:25:04;;;;;;;16.38;4.93;;;;;;;;;;5073757;28;20025;-71
2021/08/14 06:27:30;;;;;;;11.63;5.70;;;;;;;;;;5073927;28;20028;-70
2021/08/14 06:29:56;;;;;;;8.40;4.00;;;;;;;;;;5073537;28;20040;-71
2021/08/14 06:32:22;;;;;;;10.27;4.40;;;;;;;;;;5074227;28;20028;-71
2021/08/14 06:34:48;;;;;;;7.53;3.88;;;;;;;;;;5072373;28;20050;-70
2021/08/14 06:37:14;;;;;;;13.77;5.03;;;;;;;;;;5072561;28;20020;-71
2021/08/14 06:39:41;;;;;;;14.18;3.80;;;;;;;;;;5073818;28;20024;-71
2021/08/14 06:42:07;;;;;;;9.75;4.43;;;;;;;;;;5073736;28;20074;-70
2021/08/14 06:44:34;;;;;;;11.43;4.50;;;;;;;;;;5073655;28;20024;-71
2021/08/14 06:47:00;;;;;;;11.07;4.13;;;;;;;;;;5073528;28;20033;-72
2021/08/14 06:49:26;;;;;;;9.85;4.10;;;;;;;;;;5073664;28;20050;-71
2021/08/14 06:51:52;;;;;;;7.82;4.50;;;;;;;;;;5073400;28;20067;-72
2021/08/14 06:54:18;;;;;;;9.00;4.10;;;;;;;;;;5073026;28;20024;-72
2021/08/14 06:56:45;;;;;;;10.63;4.47;;;;;;;;;;5073378;28;20024;-71
2021/08/14 06:59:11;;;;;;;8.98;4.68;;;;;;;;;;5073446;28;20027;-71
2021/08/14 07:01:37;;;;;;;12.82;4.53;;;;;;;;;;5073642;28;20468;-72
2021/08/14 07:04:03;;;;;;;12.20;4.55;;;;;;;;;;5073690;28;20052;-70
2021/08/14 07:06:29;;;;;;;12.48;4.85;;;;;;;;;;5073701;28;20029;-70
2021/08/14 07:08:55;;;;;;;7.20;4.47;;;;;;;;;;5073152;28;20673;-71
2021/08/14 07:11:22;;;;;;;9.80;4.32;;;;;;;;;;5071840;28;20471;-71
2021/08/14 07:13:48;;;;;;;14.13;4.97;;;;;;;;;;5073209;28;20386;-71
2021/08/14 07:16:14;;;;;;;8.07;5.88;;;;;;;;;;5072814;28;20497;-71
2021/08/14 07:18:40;;;;;;;9.82;4.60;;;;;;;;;;5072776;28;20020;-70
2021/08/14 07:21:07;;;;;;;9.63;4.38;;;;;;;;;;5073479;28;20021;-72
2021/08/14 07:23:33;;;;;;;8.40;4.55;;;;;;;;;;5073242;28;20043;-71
2021/08/14 07:25:59;;;;;;;10.93;4.53;;;;;;;;;;5072799;28;20033;-72
2021/08/14 07:28:25;;;;;;;10.00;5.07;;;;;;;;;;5072668;28;20028;-72
2021/08/14 07:30:51;;;;;;;9.05;4.03;;;;;;;;;;5072776;28;20029;-70
2021/08/14 07:33:18;;;;;;;5.22;3.85;;;;;;;;;;5072995;28;20027;-70
2021/08/14 07:35:44;;;;;;;9.10;3.90;;;;;;;;;;5071456;28;20067;-68
2021/08/14 07:38:10;;;;;;;10.68;4.60;;;;;;;;;;5073382;28;20518;-71
2021/08/14 07:40:37;;;;;;;11.55;4.97;;;;;;;;;;5073447;28;20025;-71
2021/08/14 07:43:03;;;;;;;9.55;4.18;;;;;;;;;;5073057;28;20077;-71
2021/08/14 07:45:29;;;;;;;10.45;4.55;;;;;;;;;;5073308;28;20070;-71
2021/08/14 07:47:55;;;;;;;12.70;4.82;;;;;;;;;;5071793;28;20537;-70
2021/08/14 07:50:28;;;;;;;8.45;4.63;;;;;;;;;;5073428;28;20024;-70
2021/08/14 07:52:55;;;;;;;7.43;4.63;;;;;;;;;;5072967;28;20111;-71
2021/08/14 07:55:22;;;;;;;8.57;4.35;;;;;;;;;;5073099;28;20051;-70
2021/08/14 07:57:49;;;;;;;9.05;4.60;;;;;;;;;;5072662;28;20074;-72
2021/08/14 08:00:16;;;;;;;12.25;5.55;;;;;;;;;;5072887;28;20410;-71
2021/08/14 08:02:42;;;;;;;8.10;4.05;;;;;;;;;;5072667;28;20071;-70
2021/08/14 08:05:09;;;;;;;10.60;5.25;;;;;;;;;;5073442;28;20028;-70
2021/08/14 08:07:40;;;;;;;5.72;3.90;;;;;;;;;;5073317;28;20032;-70
2021/08/14 08:10:09;;;;;;;14.25;5.30;;;;;;;;;;5073912;28;20052;-71
2021/08/14 08:12:36;;;;;;;12.85;4.07;;;;;;;;;;5073262;28;20029;-71
2021/08/14 08:15:03;;;;;;;13.18;5.53;;;;;;;;;;5073751;28;20025;-71
2021/08/14 08:17:29;;;;;;;8.65;4.45;;;;;;;;;;5073736;28;20023;-71
2021/08/14 08:19:55;;;;;;;11.90;5.20;;;;;;;;;;5073738;28;20028;-70
2021/08/14 08:22:21;;;;;;;10.35;4.53;;;;;;;;;;5073149;28;20482;-70
2021/08/14 08:24:47;;;;;;;8.57;4.85;;;;;;;;;;5073192;28;20390;-70
2021/08/14 08:27:13;;;;;;;10.90;5.30;;;;;;;;;;5073274;28;20357;-70
2021/08/14 08:29:39;;;;;;;13.20;4.05;;;;;;;;;;5074780;28;20024;-69
2021/08/14 08:32:07;;;;;;;10.68;4.63;;;;;;;;;;5076538;28;20025;-70
2021/08/14 08:34:33;;;;;;;12.43;4.97;;;;;;;;;;5076814;28;20483;-70
2021/08/14 08:36:59;;;;;;;13.05;5.70;;;;;;;;;;5076568;28;20103;-71
2021/08/14 08:39:25;;;;;;;10.73;5.55;;;;;;;;;;5080912;28;20029;-71
2021/08/14 08:41:51;;;;;;;11.30;4.68;;;;;;;;;;5074957;28;20020;-72
2021/08/14 08:44:18;;;;;;;10.80;4.90;;;;;;;;;;5076808;28;20066;-70
2021/08/14 08:46:46;;;;;;;9.45;4.43;;;;;;;;;;5076569;28;20032;-71
2021/08/14 08:49:14;;;;;;;7.63;4.20;;;;;;;;;;5075549;28;20024;-70
2021/08/14 08:51:40;;;;;;;7.15;4.38;;;;;;;;;;5076318;28;20166;-71
2021/08/14 08:54:06;;;;;;;10.30;4.63;;;;;;;;;;5076254;28;20032;-72
2021/08/14 08:56:33;;;;;;;11.10;3.90;;;;;;;;;;5076292;28;20109;-70
2021/08/14 08:58:59;;;;;;;10.38;4.38;;;;;;;;;;5075714;28;20051;-71
2021/08/14 09:01:28;;;;;;;9.60;4.40;;;;;;;;;;5076140;28;20070;-68
2021/08/14 09:03:54;;;;;;;9.60;4.57;;;;;;;;;;5075721;28;20051;-70
2021/08/14 09:06:40;;;;;;;9.90;4.68;;;;;;;;;;5076183;28;20024;-72
2021/08/14 09:09:06;;;;;;;;;;;;;;;;;;5077007;28;20071;-69
2021/08/14 09:11:33;;;;;;;8.13;4.20;;;;;;;;;;5076258;28;19999;-71
2021/08/14 09:14:03;;;;;;;12.93;5.20;;;;;;;;;;5076101;28;20399;-71
2021/08/14 09:16:29;;;;;;;13.25;4.88;;;;;;;;;;5076473;28;20505;-72
2021/08/14 09:18:59;;;;;;;9.35;4.25;;;;;;;;;;5076337;28;20020;-71
2021/08/14 09:21:33;;;;;;;9.57;5.03;;;;;;;;;;5076624;28;20052;-72
2021/08/14 09:24:04;;;;;;;7.18;4.13;;;;;;;;;;5076258;28;20475;-71
2021/08/14 09:26:31;;;;;;;11.50;4.05;;;;;;;;;;5076371;28;20075;-70
2021/08/14 09:29:05;;;;;;;9.63;4.35;;;;;;;;;;5079674;28;20028;-71
2021/08/14 09:31:47;;;;;;;12.13;4.90;;;;;;;;;;5076563;28;20425;-73
2021/08/14 09:34:17;;;;;;;9.82;4.35;;;;;;;;;;5076811;28;20063;-70
2021/08/14 09:36:43;;;;;;;10.63;4.38;;;;;;;;;;5076670;28;20048;-71
2021/08/14 09:39:09;;;;;;;9.73;5.82;;;;;;;;;;5081285;28;20025;-71
2021/08/14 09:41:35;;;;;;;12.63;5.63;;;;;;;;;;5077005;28;20028;-72
2021/08/14 09:44:02;;;;;;;8.20;4.45;;;;;;;;;;5076257;28;20031;-71
2021/08/14 09:46:41;;;;;;;9.40;5.50;;;;;;;;;;5076800;28;20032;-70
2021/08/14 09:49:07;;;;;;;9.93;4.55;;;;;;;;;;5076143;28;20039;-71
2021/08/14 09:51:37;;;;;;;12.02;4.78;;;;;;;;;;5077917;28;20032;-69
2021/08/14 09:54:05;;;;;;;10.55;4.50;;;;;;;;;;5075594;28;20031;-71
2021/08/14 09:56:35;;;;;;;10.15;5.03;;;;;;;;;;5075487;28;20032;-72
2021/08/14 09:59:02;;;;;;;10.38;4.70;;;;;;;;;;5076594;28;20028;-72
2021/08/14 10:01:28;;;;;;;11.15;4.60;;;;;;;;;;5075618;28;20047;-69
2021/08/14 10:03:54;;;;;;;10.77;4.63;;;;;;;;;;5076317;28;20044;-71
2021/08/14 10:06:20;;;;;;;12.38;4.82;;;;;;;;;;5075706;28;20032;-71
2021/08/14 10:08:47;;;;;;;12.52;5.13;;;;;;;;;;5074679;28;20039;-70
2021/08/14 10:11:13;;;;;;;10.88;5.10;;;;;;;;;;5075172;28;20129;-73
2021/08/14 10:13:40;;;;;;;9.98;4.45;;;;;;;;;;5076139;28;20086;-71
2021/08/14 10:16:06;;;;;;;9.05;4.78;;;;;;;;;;5076524;28;20143;-70
2021/08/14 10:18:34;;;;;;;15.70;5.10;;;;;;;;;;5075767;28;20028;-70
2021/08/14 10:21:00;;;;;;;10.85;4.72;;;;;;;;;;5075260;28;20025;-72
2021/08/14 10:23:28;;;;;;;12.70;4.90;;;;;;;;;;5075679;28;20032;-70
2021/08/14 10:26:04;;;;;;;10.82;4.70;;;;;;;;;;5076263;28;20429;-69
2021/08/14 10:28:49;;;;;;;10.95;4.40;;;;;;;;;;5078201;28;20029;-72
2021/08/14 10:31:30;;;;;;;9.55;4.45;;;;;;;;;;5075396;28;20036;-72
2021/08/14 10:34:00;;;;;;;9.98;4.60;;;;;;;;;;5074809;28;20103;-71
2021/08/14 10:36:30;;;;;;;11.05;4.40;;;;;;;;;;5074456;28;20051;-70
2021/08/14 10:38:57;;;;;;;6.82;4.25;;;;;;;;;;5077670;28;20051;-72
2021/08/14 10:41:37;;;;;;;9.05;3.58;;;;;;;;;;5075089;28;20028;-71
2021/08/14 10:44:03;;;;;;;11.32;4.25;;;;;;;;;;5074667;28;20074;-70
2021/08/14 10:46:32;;;;;;;9.10;4.95;;;;;;;;;;5075283;28;20032;-71
2021/08/14 10:48:59;;;;;;;9.50;4.40;;;;;;;;;;5074236;28;20086;-71
2021/08/14 10:51:44;;;;;;;10.15;4.15;;;;;;;;;;5074644;28;20031;-73
2021/08/14 10:54:10;;;;;;;9.25;3.95;;;;;;;;;;5074660;28;20035;-69
2021/08/14 10:56:51;;;;;;;11.50;4.43;;;;;;;;;;5075407;28;20090;-71
2021/08/14 10:59:35;;;;;;;10.23;4.22;;;;;;;;;;5079006;28;20020;-72
2021/08/14 11:02:10;;;;;;;7.95;3.67;;;;;;;;;;5075620;28;20047;-70
2021/08/14 11:04:44;;;;;;;8.40;3.40;;;;;;;;;;5075668;28;20036;-71
2021/08/14 11:07:19;;;;;;;8.52;3.50;;;;;;;;;;5076092;28;20032;-71
2021/08/14 11:09:55;;;;;;;9.90;3.38;;;;;;;;;;5075813;28;20032;-70
2021/08/14 11:12:21;;;;;;;;;;;;;;;;;;5075828;28;20040;-70
2021/08/14 11:14:47;;;;;;;7.60;3.17;;;;;;;;;;5074335;28;19908;-69
2021/08/14 11:17:15;;;;;;;6.22;3.35;;;;;;;;;;5074132;28;20032;-71
2021/08/14 11:19:52;;;;;;;8.60;3.45;;;;;;;;;;5075201;28;20024;-73
2021/08/14 11:22:18;;;;;;;8.43;3.38;;;;;;;;;;5075962;28;20012;-71
2021/08/14 11:24:47;;;;;;;7.63;3.40;;;;;;;;;;5073182;28;20024;-73
2021/08/14 11:27:30;;;;;;;6.57;3.80;;;;;;;;;;5074796;28;20029;-72
2021/08/14 11:30:00;;;;;;;8.13;4.05;;;;;;;;;;5075068;28;20161;-69
2021/08/14 11:32:27;;;;;;;4.35;3.03;;;;;;;;;;5075244;28;20020;-71
2021/08/14 11:34:54;;;;;;;5.47;2.95;;;;;;;;;;5074786;28;20032;-69
2021/08/14 11:37:20;;;;;;;8.73;3.85;;;;;;;;;;5073579;28;20020;-72
2021/08/14 11:39:46;;;;;;;7.25;3.65;;;;;;;;;;5074292;28;20048;-70
2021/08/14 11:42:13;;;;;;;6.55;3.05;;;;;;;;;;5073449;28;20499;-72
2021/08/14 11:44:40;;;;;;;7.95;3.38;;;;;;;;;;5073594;28;20082;-72
2021/08/14 11:47:07;;;;;;;9.15;3.60;;;;;;;;;;5074165;28;20036;-71
2021/08/14 11:49:56;;;;;;;6.57;3.58;;;;;;;;;;5074478;28;20390;-70
2021/08/14 11:52:23;;;;;;;10.10;3.60;;;;;;;;;;5075279;28;20025;-70
2021/08/14 11:55:08;;;;;;;7.50;3.63;;;;;;;;;;5075020;28;20360;-71
2021/08/14 11:57:36;;;;;;;7.40;3.63;;;;;;;;;;5074577;28;20069;-72
2021/08/14 12:00:06;;;;;;;6.45;3.95;;;;;;;;;;5074390;28;20032;-72
2021/08/14 12:02:32;;;;;;;8.63;3.55;;;;;;;;;;5074601;28;20045;-72
2021/08/14 12:04:58;;;;;;;7.97;3.60;;;;;;;;;;5078856;28;20382;-68
2021/08/14 12:07:24;;;;;;;8.43;3.53;;;;;;;;;;5079043;28;20025;-71
2021/08/14 12:09:51;;;;;;;8.88;3.45;;;;;;;;;;5078227;28;20032;-71
2021/08/14 12:12:18;;;;;;;7.55;3.40;;;;;;;;;;5077822;28;20027;-71
2021/08/14 12:14:45;;;;;;;7.43;3.72;;;;;;;;;;5078641;28;20028;-73
2021/08/14 12:17:11;;;;;;;6.43;3.42;;;;;;;;;;5079245;28;20025;-73
2021/08/14 12:19:46;;;;;;;8.27;3.83;;;;;;;;;;5077832;28;20025;-70
2021/08/14 12:22:14;;;;;;;8.45;3.28;;;;;;;;;;5077566;28;20036;-72
2021/08/14 12:24:41;;;;;;;9.15;3.35;;;;;;;;;;5077769;28;20029;-72
2021/08/14 12:27:23;;;;;;;7.18;4.10;;;;;;;;;;5078767;28;20055;-72
2021/08/14 12:29:49;;;;;;;10.23;3.92;;;;;;;;;;5077047;28;20031;-72
2021/08/14 12:32:15;;;;;;;9.32;3.67;;;;;;;;;;5077553;28;20025;-71
2021/08/14 12:34:42;;;;;;;7.68;4.10;;;;;;;;;;5077758;28;20055;-71
2021/08/14 12:37:13;;;;;;;8.05;4.45;;;;;;;;;;5077976;28;20031;-70
2021/08/14 12:39:59;;;;;;;7.60;3.60;;;;;;;;;;5082062;28;20127;-72
2021/08/14 12:42:28;;;;;;;9.90;3.17;;;;;;;;;;5079878;28;20523;-70
2021/08/14 12:44:55;;;;;;;9.77;3.47;;;;;;;;;;5081114;28;20058;-71
2021/08/14 12:47:28;;;;;;;6.00;3.40;;;;;;;;;;5081738;28;20391;-73
2021/08/14 12:50:12;;;;;;;7.00;3.75;;;;;;;;;;5081389;28;20025;-70
2021/08/14 12:52:54;;;;;;;6.15;3.75;;;;;;;;;;5077804;28;20032;-71
2021/08/14 12:55:34;;;;;;;6.25;3.75;;;;;;;;;;5076627;28;20034;-70
2021/08/14 12:58:04;;;;;;;8.10;3.95;;;;;;;;;;5077090;28;20353;-70
2021/08/14 13:00:31;;;;;;;8.45;4.22;;;;;;;;;;5078683;28;20020;-74
2021/08/14 13:03:00;;;;;;;10.15;3.50;;;;;;;;;;5077680;28;20075;-68
2021/08/14 13:05:26;;;;;;;8.10;3.28;;;;;;;;;;5077995;28;20097;-72
2021/08/14 13:07:52;;;;;;;7.22;3.30;;;;;;;;;;5077419;28;20029;-70
2021/08/14 13:10:19;;;;;;;5.63;3.53;;;;;;;;;;5078432;28;20054;-68
2021/08/14 13:12:55;;;;;;;4.00;2.80;;;;;;;;;;5078835;28;20161;-71
2021/08/14 13:15:23;;;;;;;9.35;3.17;;;;;;;;;;5076621;28;20079;-72
2021/08/14 13:17:50;;;;;;;5.68;3.45;;;;;;;;;;5077026;28;20024;-71
2021/08/14 13:20:17;;;;;;;5.63;2.92;;;;;;;;;;5075271;28;20057;-71
2021/08/14 13:22:46;;;;;;;4.97;2.90;;;;;;;;;;5077751;28;20426;-72
2021/08/14 13:25:13;;;;;;;4.57;2.78;;;;;;;;;;5077684;28;20020;-71
2021/08/14 13:27:40;;;;;;;6.35;3.58;;;;;;;;;;5076624;28;20024;-69
2021/08/14 13:30:19;;;;;;;8.77;3.03;;;;;;;;;;5076174;28;20536;-70
2021/08/14 13:32:48;;;;;;;4.32;3.08;;;;;;;;;;5076399;28;20079;-69
2021/08/14 13:35:17;;;;;;;8.23;3.08;;;;;;;;;;5076721;28;20033;-71
2021/08/14 13:37:43;;;;;;;5.30;2.97;;;;;;;;;;5076165;28;20471;-71
2021/08/14 13:40:10;;;;;;;4.82;3.00;;;;;;;;;;5074067;28;20387;-72
2021/08/14 13:42:36;;;;;;;6.43;3.30;;;;;;;;;;5076398;28;20032;-72
2021/08/14 13:45:03;;;;;;;5.38;3.83;;;;;;;;;;5078090;28;20029;-70
2021/08/14 13:47:29;;;;;;;5.72;3.13;;;;;;;;;;5077970;28;20024;-71
2021/08/14 13:49:55;;;;;;;5.63;3.15;;;;;;;;;;5075957;28;20095;-71
2021/08/14 13:52:22;;;;;;;5.78;3.70;;;;;;;;;;5077194;28;20103;-69
2021/08/14 13:54:48;;;;;;;9.38;3.53;;;;;;;;;;5077462;28;20501;-72
2021/08/14 13:57:14;;;;;;;5.40;3.33;;;;;;;;;;5077836;28;20051;-71
2021/08/14 13:59:40;;;;;;;5.65;4.18;;;;;;;;;;5076493;28;20024;-71
2021/08/14 14:02:06;;;;;;;8.20;3.75;;;;;;;;;;5075808;28;20033;-70
2021/08/14 14:04:33;;;;;;;5.80;3.38;;;;;;;;;;5076414;28;20029;-71
2021/08/14 14:06:59;;;;;;;7.55;3.50;;;;;;;;;;5078423;28;20036;-72
2021/08/14 14:09:28;;;;;;;5.10;3.72;;;;;;;;;;5076616;28;20020;-71
2021/08/14 14:11:55;;;;;;;4.10;3.00;;;;;;;;;;5075279;28;20025;-72
2021/08/14 14:14:21;;;;;;;8.10;3.60;;;;;;;;;;5076027;28;20052;-69
2021/08/14 14:16:47;;;;;;;11.07;4.13;;;;;;;;;;5076810;28;20024;-72
2021/08/14 14:19:13;;;;;;;5.47;3.45;;;;;;;;;;5079699;28;20024;-71
2021/08/14 14:21:39;;;;;;;6.30;3.75;;;;;;;;;;5076227;28;20025;-69
2021/08/14 14:24:05;;;;;;;5.63;3.42;;;;;;;;;;5076254;28;20103;-71
2021/08/14 14:26:31;;;;;;;10.43;3.97;;;;;;;;;;5076950;28;20040;-71
2021/08/14 14:28:58;;;;;;;7.47;3.97;;;;;;;;;;5077135;28;20103;-69
2021/08/14 14:31:24;;;;;;;8.63;3.95;;;;;;;;;;5077813;28;20479;-71
2021/08/14 14:33:50;;;;;;;5.85;3.67;;;;;;;;;;5075852;28;20020;-70
2021/08/14 14:36:17;;;;;;;7.18;3.83;;;;;;;;;;5074987;28;20024;-71
2021/08/14 14:38:43;;;;;;;9.35;4.93;;;;;;;;;;5075977;28;20020;-73
2021/08/14 14:41:11;;;;;;;7.82;3.55;;;;;;;;;;5078101;28;20055;-71